createdAt,value
2023-04-25T00:01:14.254Z,65.77
2023-04-25T00:06:16.041Z,65.82
2023-04-25T00:11:17.771Z,65.90
2023-04-25T00:16:19.636Z,66.05
2023-04-25T00:21:22.353Z,66.01
2023-04-25T00:26:24.170Z,66.34
2023-04-25T00:31:25.983Z,66.62
2023-04-25T00:36:28.674Z,67.04
2023-04-25T00:41:31.272Z,67.30
2023-04-25T00:46:33.464Z,67.38
2023-04-25T00:51:36.177Z,67.30
2023-04-25T00:56:38.415Z,67.12
2023-04-25T01:01:40.547Z,66.43
2023-04-25T01:06:42.593Z,66.74
2023-04-25T01:11:44.408Z,66.60
2023-04-25T01:16:46.360Z,67.02
2023-04-25T01:21:48.344Z,67.10
2023-04-25T01:26:51.419Z,67.06
2023-04-25T01:31:59.629Z,66.99
2023-04-25T01:37:02.786Z,66.52
2023-04-25T01:42:04.812Z,66.00
2023-04-25T01:47:06.919Z,65.99
2023-04-25T01:52:08.705Z,65.92
2023-04-25T01:57:12.451Z,65.90
2023-04-25T02:02:16.720Z,65.38
2023-04-25T02:07:19.352Z,64.94
2023-04-25T02:12:28.791Z,64.51
2023-04-25T02:17:30.506Z,64.18
2023-04-25T02:22:32.601Z,63.95
2023-04-25T02:27:34.453Z,63.85
2023-04-25T02:32:36.375Z,63.65
2023-04-25T02:37:39.682Z,63.52
2023-04-25T02:42:42.034Z,63.31
2023-04-25T02:47:43.811Z,63.44
2023-04-25T02:52:47.259Z,63.38
2023-04-25T02:57:53.282Z,63.67
2023-04-25T03:03:07.232Z,63.55
2023-04-25T03:08:09.066Z,63.69
2023-04-25T03:13:13.062Z,63.21
2023-04-25T03:18:17.601Z,63.41
2023-04-25T03:23:19.934Z,63.21
2023-04-25T03:28:23.237Z,63.54
2023-04-25T03:33:25.965Z,63.19
2023-04-25T03:38:28.179Z,63.31
2023-04-25T03:43:30.119Z,63.17
2023-04-25T03:48:39.661Z,63.15
2023-04-25T03:53:42.704Z,63.24
2023-04-25T03:58:50.592Z,63.33
2023-04-25T04:03:55.393Z,63.57
2023-04-25T04:08:57.816Z,63.53
2023-04-25T04:14:00.128Z,63.98
2023-04-25T04:19:03.777Z,64.16
2023-04-25T04:24:09.470Z,64.12
2023-04-25T04:29:23.384Z,64.11
2023-04-25T04:34:40.549Z,63.88
2023-04-25T04:39:42.909Z,63.82
2023-04-25T04:44:59.747Z,63.81
2023-04-25T04:50:22.078Z,62.97
2023-04-25T04:55:42.289Z,62.23
2023-04-25T05:01:02.758Z,62.36
2023-04-25T05:06:23.593Z,61.00
2023-04-25T05:11:45.337Z,60.14
2023-04-25T05:17:09.578Z,59.75
2023-04-25T05:22:40.150Z,59.66
2023-04-25T05:27:54.332Z,59.47
2023-04-25T05:33:14.543Z,59.30
2023-04-25T05:38:17.212Z,58.56
2023-04-25T05:43:37.971Z,57.87
2023-04-25T05:48:56.522Z,57.41
2023-04-25T05:54:13.094Z,56.29
2023-04-25T05:59:15.353Z,55.93
2023-04-25T06:04:17.374Z,55.50
2023-04-25T06:09:19.447Z,55.00
2023-04-25T06:14:21.211Z,54.80
2023-04-25T06:19:25.159Z,53.60
2023-04-25T06:24:27.688Z,53.17
2023-04-25T06:29:29.616Z,52.53
2023-04-25T06:34:31.618Z,52.19
2023-04-25T06:39:34.237Z,51.84
2023-04-25T06:44:36.903Z,51.58
2023-04-25T06:49:42.002Z,51.95
2023-04-25T06:54:46.011Z,52.04
2023-04-25T07:00:10.622Z,53.10
2023-04-25T07:05:13.617Z,52.70
2023-04-25T07:10:16.391Z,53.51
2023-04-25T07:15:18.329Z,53.35
2023-04-25T07:20:23.502Z,53.33
2023-04-25T07:25:25.904Z,53.54
2023-04-25T07:30:28.500Z,52.74
2023-04-25T07:35:30.657Z,52.45
2023-04-25T07:40:32.616Z,51.41
2023-04-25T07:45:40.708Z,51.37
2023-04-25T07:50:46.351Z,50.01
2023-04-25T07:55:48.216Z,48.98
2023-04-25T08:00:52.320Z,47.40
2023-04-25T08:06:13.158Z,47.57
2023-04-25T08:11:38.469Z,46.74
2023-04-25T08:16:41.556Z,45.37
2023-04-25T08:21:43.516Z,44.29
2023-04-25T08:26:50.412Z,44.75
2023-04-25T08:31:55.581Z,44.62
2023-04-25T08:36:57.656Z,45.05
2023-04-25T08:42:22.646Z,45.05
2023-04-25T08:47:27.505Z,43.11
2023-04-25T08:52:36.977Z,43.70
2023-04-25T08:57:40.608Z,43.66
2023-04-25T09:02:45.097Z,42.19
2023-04-25T09:07:48.564Z,40.70
2023-04-25T09:13:07.470Z,39.28
2023-04-25T09:18:34.480Z,40.24
2023-04-25T09:23:46.029Z,41.90
2023-04-25T09:28:50.950Z,41.68
2023-04-25T09:34:02.840Z,38.33
2023-04-25T09:39:20.565Z,41.00
2023-04-25T09:44:30.580Z,40.43
2023-04-25T09:49:33.100Z,40.88
2023-04-25T09:54:41.346Z,40.45
2023-04-25T09:59:48.686Z,40.44
2023-04-25T10:04:54.227Z,40.20
2023-04-25T10:10:07.210Z,39.97
2023-04-25T10:15:10.152Z,39.86
2023-04-25T10:20:12.536Z,40.65
2023-04-25T10:25:15.446Z,40.32
2023-04-25T10:30:17.471Z,40.00
2023-04-25T10:35:25.204Z,39.58
2023-04-25T10:40:28.062Z,37.95
2023-04-25T10:45:29.818Z,38.10
2023-04-25T10:50:40.207Z,36.54
2023-04-25T10:55:52.505Z,36.22
2023-04-25T11:00:57.585Z,36.66
2023-04-25T11:06:02.872Z,36.01
2023-04-25T11:11:05.780Z,35.98
2023-04-25T11:16:12.753Z,37.44
2023-04-25T11:21:15.332Z,38.36
2023-04-25T11:26:17.465Z,38.79
2023-04-25T11:31:22.838Z,37.91
2023-04-25T11:36:25.655Z,39.39
2023-04-25T11:41:27.412Z,39.53
2023-04-25T11:46:29.267Z,38.56
2023-04-25T11:51:32.029Z,38.19
2023-04-25T11:56:34.465Z,37.40
2023-04-25T12:01:39.380Z,36.52
2023-04-25T12:06:43.271Z,37.16
2023-04-25T12:11:56.303Z,36.22
2023-04-25T12:17:02.613Z,37.14
2023-04-25T12:22:20.271Z,35.55
2023-04-25T12:27:22.043Z,35.50
2023-04-25T12:32:27.718Z,35.28
2023-04-25T12:37:29.839Z,35.56
2023-04-25T12:42:32.512Z,36.07
2023-04-25T12:47:36.758Z,35.23
2023-04-25T12:52:38.624Z,35.23
2023-04-25T12:57:42.555Z,35.38
2023-04-25T13:02:46.443Z,35.42
2023-04-25T13:07:50.892Z,34.68
2023-04-25T13:12:52.790Z,34.42
2023-04-25T13:17:54.675Z,33.96
2023-04-25T13:22:56.754Z,33.79
2023-04-25T13:27:58.678Z,33.34
2023-04-25T13:33:04.425Z,35.29
2023-04-25T13:38:09.955Z,35.44
2023-04-25T13:43:11.865Z,36.62
2023-04-25T13:48:13.665Z,37.60
2023-04-25T13:53:15.629Z,38.77
2023-04-25T13:58:20.233Z,39.00
2023-04-25T14:03:22.137Z,38.80
2023-04-25T14:08:23.981Z,38.75
2023-04-25T14:13:26.016Z,37.62
2023-04-25T14:18:27.845Z,36.15
2023-04-25T14:23:29.663Z,35.75
2023-04-25T14:28:32.772Z,35.34
2023-04-25T14:33:35.375Z,34.96
2023-04-25T14:38:38.579Z,35.33
2023-04-25T14:43:43.441Z,34.90
2023-04-25T14:48:46.210Z,34.65
2023-04-25T14:53:48.031Z,34.63
2023-04-25T14:58:49.807Z,34.45
2023-04-25T15:03:52.756Z,34.82
2023-04-25T15:08:56.595Z,34.21
2023-04-25T15:13:58.384Z,33.56
2023-04-25T15:19:00.174Z,34.48
2023-04-25T15:24:02.349Z,34.59
2023-04-25T15:29:05.584Z,34.62
2023-04-25T15:34:08.424Z,35.14
2023-04-25T15:39:10.214Z,34.75
2023-04-25T15:44:11.959Z,34.87
2023-04-25T15:49:13.761Z,34.31
2023-04-25T15:54:16.036Z,33.97
2023-04-25T15:59:17.756Z,34.37
2023-04-25T16:04:19.694Z,35.62
2023-04-25T16:09:22.255Z,35.26
2023-04-25T16:14:24.343Z,34.92
2023-04-25T16:19:26.164Z,36.38
2023-04-25T16:24:27.961Z,35.19
2023-04-25T16:29:30.191Z,35.24
2023-04-25T16:34:32.054Z,35.17
2023-04-25T16:39:33.811Z,34.85
2023-04-25T16:44:35.734Z,33.00
2023-04-25T16:49:39.306Z,33.53
2023-04-25T16:54:41.130Z,32.59
2023-04-25T16:59:42.938Z,32.57
2023-04-25T17:04:44.687Z,32.67
2023-04-25T17:09:46.643Z,33.44
2023-04-25T17:14:49.594Z,34.31
2023-04-25T17:19:54.464Z,34.88
2023-04-25T17:24:57.591Z,35.30
2023-04-25T17:29:59.847Z,35.71
2023-04-25T17:35:01.739Z,36.50
2023-04-25T17:40:05.099Z,37.61
2023-04-25T17:45:08.028Z,37.66
2023-04-25T17:50:09.972Z,38.48
2023-04-25T17:55:11.816Z,38.97
2023-04-25T18:00:14.233Z,38.72
2023-04-25T18:05:16.909Z,39.18
2023-04-25T18:10:18.801Z,39.82
2023-04-25T18:15:22.147Z,39.77
2023-04-25T18:20:23.997Z,40.69
2023-04-25T18:25:25.738Z,41.27
2023-04-25T18:30:27.536Z,42.25
2023-04-25T18:35:29.383Z,42.47
2023-04-25T18:40:31.808Z,43.38
2023-04-25T18:45:33.630Z,43.82
2023-04-25T18:50:35.784Z,44.23
2023-04-25T18:55:38.541Z,44.00
2023-04-25T19:00:40.456Z,44.05
2023-04-25T19:05:42.585Z,44.80
2023-04-25T19:10:44.748Z,44.94
2023-04-25T19:15:47.326Z,45.95
2023-04-25T19:20:49.035Z,46.77
2023-04-25T19:25:50.882Z,47.38
2023-04-25T19:30:54.972Z,47.72
2023-04-25T19:35:56.753Z,48.28
2023-04-25T19:40:58.517Z,48.27
2023-04-25T19:46:00.333Z,48.66
2023-04-25T19:51:02.316Z,49.19
2023-04-25T19:56:04.988Z,49.43
2023-04-25T20:01:06.801Z,49.54
2023-04-25T20:06:08.705Z,50.18
2023-04-25T20:11:12.125Z,50.35
2023-04-25T20:16:19.910Z,50.20
2023-04-25T20:21:22.565Z,50.57
2023-04-25T20:26:25.894Z,50.51
2023-04-25T20:31:27.948Z,50.67
2023-04-25T20:36:30.166Z,52.06
2023-04-25T20:41:32.236Z,51.72
2023-04-25T20:46:35.205Z,51.56
2023-04-25T20:51:37.184Z,51.64
2023-04-25T20:56:39.090Z,51.86
2023-04-25T21:01:41.095Z,51.88
2023-04-25T21:06:42.839Z,51.89
2023-04-25T21:16:47.911Z,52.51
2023-04-25T21:21:49.721Z,52.61
2023-04-25T21:26:51.461Z,53.01
2023-04-25T21:31:53.249Z,53.23
2023-04-25T21:36:55.108Z,53.67
2023-04-25T21:41:56.862Z,54.03
2023-04-25T21:46:58.637Z,54.42
2023-04-25T21:52:00.523Z,54.63
2023-04-25T21:57:02.913Z,55.19
2023-04-25T22:02:04.688Z,55.42
2023-04-25T22:07:06.587Z,55.78
2023-04-25T22:12:08.376Z,56.07
2023-04-25T22:17:12.098Z,56.16
2023-04-25T22:22:14.282Z,56.29
2023-04-25T22:27:16.120Z,56.41
2023-04-25T22:32:18.123Z,56.67
2023-04-25T22:37:19.854Z,56.68
2023-04-25T22:42:21.618Z,56.79
2023-04-25T22:47:24.734Z,57.16
2023-04-25T22:52:26.711Z,57.33
2023-04-25T22:57:28.901Z,57.45
2023-04-25T23:02:30.750Z,57.73
2023-04-25T23:07:34.042Z,57.88
2023-04-25T23:12:35.921Z,58.26
2023-04-25T23:17:38.207Z,58.44
2023-04-25T23:22:40.070Z,58.48
2023-04-25T23:27:43.126Z,58.46
2023-04-25T23:32:45.072Z,58.75
2023-04-25T23:37:49.157Z,58.75
2023-04-25T23:42:51.004Z,59.16
2023-04-25T23:47:52.816Z,59.17
2023-04-25T23:52:54.599Z,59.38
2023-04-25T23:57:56.680Z,59.50
